Terminal Aerodrome Forecast
Issued by NWS Charleston, SC

Home | Current Version | Previous Version | Text Only | Print | Product List | Glossary On
Versions: 1 2 3 4 5 6 7 8 9 10 11 12 13 14 15 16 17 18 19 20
000
FTUS42 KCHS 010521
TAFSAV
TAF
KSAV 010521Z 0106/0206 00000KT P6SM FEW045
     FM011300 VRB03KT P6SM FEW040
     FM011700 10008KT P6SM BKN050
     FM012200 14010KT P6SM SCT050=

USA.gov is the U.S. government's official web portal to all federal, state and local government web resources and services.